Antiville, Indiana
Current Conditions -  °F | °C
As of 4:53 PM on Sunday 23 Nov 2014 (Local Time) from KMIE Reporting Station
Light Rain Light Rain  
Wind Chill: 52°   Ceiling: 3600
Heat Index: 52°   Visibility: 4mi
Dew Point: 50°   Wind: 15mph
Humidity: 93%   Direction: 140°SE
Pressure: 29.52"   Gusts: NA
Location:  40.4312°N, 85.0058°W
Report Text: KMIE 232153Z 14013KT 4SM -RA BR BKN036 BKN070 OVC085 11/10 A2952 RMK AO2 PRESFR SLP993 P0010 T01110100
Loading
Personal Weather Stations






























Interactive Weather Map New forecast layout! Learn more

10-Day Weather Forecast

Advertisements
Track Severe Weather on mobile